Time;durP1;ratioP1;P1;durP2;ratioP2;P2;SDS_P1;SDS_P2;PMS_P1;PMS_P2;Temp;Humidity;BMP_temperature;BMP_pressure;BME280_temperature;BME280_humidity;BME280_pressure;Samples;Min_cycle;Max_cycle;Signal;HPM_P1;HPM_P2
2022/09/17 00:00:48;;;;;;;3.83;1.55;;;11.20;99.90;;;;;;5072476;28;20458;-84
2022/09/17 00:03:14;;;;;;;3.67;1.40;;;11.20;99.90;;;;;;5049316;28;20208;-85
2022/09/17 00:05:40;;;;;;;3.95;1.80;;;11.90;99.90;;;;;;5065593;28;20032;-86
2022/09/17 00:08:08;;;;;;;4.03;1.85;;;11.10;99.90;;;;;;5053414;28;20089;-81
2022/09/17 00:10:39;;;;;;;6.63;1.83;;;11.90;99.90;;;;;;5048518;28;20028;-84
2022/09/17 00:13:05;;;;;;;3.30;1.42;;;10.80;99.90;;;;;;5047340;28;20029;-86
2022/09/17 00:15:31;;;;;;;4.20;1.25;;;11.00;99.90;;;;;;5049527;28;20027;-85
2022/09/17 00:17:57;;;;;;;4.82;1.73;;;;;;;;;;5057244;28;20115;-82
2022/09/17 00:20:26;;;;;;;5.07;1.60;;;11.00;99.90;;;;;;5056846;28;20021;-85
2022/09/17 00:22:53;;;;;;;3.75;1.70;;;11.00;99.90;;;;;;5053577;28;20021;-83
2022/09/17 00:25:19;;;;;;;3.08;1.58;;;12.30;99.90;;;;;;5072004;28;20401;-88
2022/09/17 00:27:45;;;;;;;3.75;1.48;;;11.00;99.90;;;;;;5056267;28;20025;-84
2022/09/17 00:30:12;;;;;;;8.00;2.10;;;12.50;99.90;;;;;;5052034;28;20074;-85
2022/09/17 00:32:38;;;;;;;6.25;2.30;;;10.90;99.90;;;;;;5053391;28;20440;-81
2022/09/17 00:35:04;;;;;;;4.88;1.85;;;13.20;99.90;;;;;;5072775;28;20039;-86
2022/09/17 00:37:30;;;;;;;7.80;1.80;;;11.00;99.90;;;;;;5055708;28;20107;-84
2022/09/17 00:39:56;;;;;;;6.53;2.05;;;11.70;99.90;;;;;;5062085;28;20059;-86
2022/09/17 00:42:22;;;;;;;5.00;1.90;;;11.50;99.90;;;;;;5041872;28;20028;-83
2022/09/17 00:44:53;;;;;;;5.97;2.10;;;10.70;99.90;;;;;;5071197;28;20036;-84
2022/09/17 00:47:38;;;;;;;6.47;2.42;;;13.30;99.90;;;;;;5057175;28;20054;-83
2022/09/17 00:50:07;;;;;;;4.20;2.00;;;10.90;99.90;;;;;;5057616;28;20032;-86
2022/09/17 00:52:38;;;;;;;6.70;2.58;;;10.90;99.90;;;;;;5055530;28;20032;-84
2022/09/17 00:55:13;;;;;;;6.60;2.00;;;12.60;99.90;;;;;;5076424;28;20028;-84
2022/09/17 00:57:40;;;;;;;7.53;2.40;;;10.80;99.90;;;;;;5073954;28;20429;-84
2022/09/17 01:00:08;;;;;;;6.88;2.47;;;11.60;99.90;;;;;;5051833;28;20021;-81
2022/09/17 01:02:34;;;;;;;7.40;1.90;;;10.70;99.90;;;;;;5053731;28;20033;-85
2022/09/17 01:05:00;;;;;;;6.18;1.90;;;10.70;99.90;;;;;;5052751;28;20370;-83
2022/09/17 01:07:40;;;;;;;6.25;1.70;;;10.70;99.90;;;;;;5056512;28;20111;-83
2022/09/17 01:10:11;;;;;;;4.43;1.80;;;10.60;99.90;;;;;;5051421;28;20430;-86
2022/09/17 01:12:40;;;;;;;4.15;1.63;;;10.60;99.90;;;;;;5050540;28;20040;-81
2022/09/17 01:15:32;;;;;;;3.47;1.63;;;12.30;99.90;;;;;;5054130;28;20033;-82
2022/09/17 01:18:17;;;;;;;4.47;1.77;;;10.70;99.90;;;;;;5016365;28;20036;-84
2022/09/17 01:21:11;;;;;;;2.42;1.63;;;10.70;99.90;;;;;;5039343;28;20557;-82
2022/09/17 01:23:52;;;;;;;7.05;1.80;;;10.70;99.90;;;;;;5072032;28;20029;-83
2022/09/17 01:26:36;;;;;;;5.10;1.80;;;10.70;99.90;;;;;;5072260;28;20114;-85
2022/09/17 01:29:26;;;;;;;5.43;1.92;;;10.70;99.90;;;;;;5072344;28;20032;-83
2022/09/17 01:31:58;;;;;;;7.22;2.13;;;10.60;99.90;;;;;;5067932;28;20037;-82
2022/09/17 01:34:32;;;;;;;3.97;1.90;;;10.80;99.90;;;;;;5073555;28;20036;-84
2022/09/17 01:37:16;;;;;;;5.20;2.13;;;11.30;99.90;;;;;;5067876;28;20482;-82
2022/09/17 01:40:00;;;;;;;5.18;1.95;;;10.50;99.90;;;;;;5073049;28;20071;-85
2022/09/17 01:42:50;;;;;;;4.68;2.15;;;10.50;99.90;;;;;;5073683;28;20021;-83
2022/09/17 01:45:46;;;;;;;4.13;1.63;;;10.50;99.90;;;;;;5060177;28;20060;-82
2022/09/17 01:48:18;;;;;;;7.65;2.08;;;10.50;99.90;;;;;;5072494;28;20135;-86
2022/09/17 01:50:54;;;;;;;3.58;2.03;;;10.40;99.90;;;;;;5077237;28;20513;-83
2022/09/17 01:53:27;;;;;;;6.07;1.75;;;10.40;99.90;;;;;;5054454;28;20147;-85
2022/09/17 01:55:55;;;;;;;4.03;1.92;;;10.40;99.90;;;;;;5073092;28;20070;-83
2022/09/17 01:58:36;;;;;;;4.90;1.80;;;10.90;99.90;;;;;;5054190;28;20175;-83
2022/09/17 02:01:06;;;;;;;9.02;2.00;;;10.50;99.90;;;;;;5061181;28;20029;-81
2022/09/17 02:03:42;;;;;;;5.15;2.00;;;10.50;99.90;;;;;;5052677;28;20037;-83
2022/09/17 02:06:18;;;;;;;6.00;2.60;;;10.50;99.90;;;;;;5054562;28;20064;-83
2022/09/17 02:08:57;;;;;;;11.10;2.17;;;10.60;99.90;;;;;;5069042;28;20441;-83
2022/09/17 02:11:23;;;;;;;3.88;1.70;;;11.10;99.90;;;;;;5055973;28;20017;-84
2022/09/17 02:13:59;;;;;;;9.93;2.25;;;10.60;99.90;;;;;;5061517;28;20089;-82
2022/09/17 02:16:31;;;;;;;5.38;2.30;;;10.50;99.90;;;;;;5074644;28;20028;-84
2022/09/17 02:19:06;;;;;;;3.72;2.10;;;10.50;99.90;;;;;;5075448;28;20457;-84
2022/09/17 02:21:44;;;;;;;6.97;2.08;;;11.30;99.90;;;;;;5054715;28;20060;-83
2022/09/17 02:24:41;;;;;;;4.65;2.10;;;10.50;99.90;;;;;;5071463;28;20074;-83
2022/09/17 02:27:13;;;;;;;5.85;2.35;;;10.50;99.90;;;;;;5055508;28;20033;-82
2022/09/17 02:29:42;;;;;;;7.25;2.22;;;11.50;99.90;;;;;;5048713;28;20036;-83
2022/09/17 02:32:08;;;;;;;4.78;2.10;;;10.40;99.90;;;;;;5069284;28;20033;-84
2022/09/17 02:34:34;;;;;;;5.97;2.25;;;12.50;99.90;;;;;;5055241;28;20036;-84
2022/09/17 02:37:01;;;;;;;5.15;2.08;;;11.20;99.90;;;;;;5055972;28;20040;-84
2022/09/17 02:39:27;;;;;;;7.03;2.05;;;10.30;99.90;;;;;;5055413;28;20028;-84
2022/09/17 02:42:17;;;;;;;6.35;2.30;;;11.80;99.90;;;;;;5073102;28;20029;-81
2022/09/17 02:45:03;;;;;;;10.13;2.30;;;10.20;99.90;;;;;;5049700;28;20081;-83
2022/09/17 02:47:35;;;;;;;5.38;2.17;;;10.30;99.90;;;;;;5055119;28;20032;-84
2022/09/17 02:50:19;;;;;;;4.10;1.88;;;10.30;99.90;;;;;;5057006;28;20479;-83
2022/09/17 02:52:45;;;;;;;4.95;2.30;;;10.30;99.90;;;;;;5057197;28;20081;-81
2022/09/17 02:55:33;;;;;;;7.70;2.10;;;10.30;99.90;;;;;;5068132;28;20088;-81
2022/09/17 02:58:25;;;;;;;6.05;2.17;;;10.40;99.90;;;;;;5067586;28;20037;-85
2022/09/17 03:00:52;;;;;;;4.88;2.20;;;10.40;99.90;;;;;;5057518;28;20048;-80
2022/09/17 03:03:29;;;;;;;5.07;2.10;;;10.70;99.90;;;;;;5055551;28;20139;-81
2022/09/17 03:05:56;;;;;;;6.13;2.20;;;10.50;99.90;;;;;;5056811;28;20032;-84
2022/09/17 03:08:29;;;;;;;5.50;2.10;;;11.70;99.90;;;;;;5053789;28;20029;-82
2022/09/17 03:10:55;;;;;;;4.88;2.25;;;11.50;99.90;;;;;;5050962;28;20032;-83
2022/09/17 03:13:20;;;;;;;5.72;2.20;;;13.30;99.90;;;;;;5070424;28;20051;-83
2022/09/17 03:15:46;;;;;;;5.32;2.65;;;10.70;99.90;;;;;;5055569;28;20474;-83
2022/09/17 03:18:12;;;;;;;5.00;2.35;;;10.80;99.90;;;;;;5052584;28;20028;-82
2022/09/17 03:20:37;;;;;;;3.92;2.10;;;10.70;99.90;;;;;;5052132;28;20044;-83
2022/09/17 03:23:03;;;;;;;6.78;2.60;;;12.40;99.90;;;;;;5053918;28;20281;-84
2022/09/17 03:25:28;;;;;;;5.28;2.50;;;10.70;99.90;;;;;;5054350;28;20025;-83
2022/09/17 03:27:54;;;;;;;7.43;2.63;;;11.90;99.90;;;;;;5056086;28;20032;-82
2022/09/17 03:30:19;;;;;;;6.05;2.30;;;10.60;99.90;;;;;;5050632;28;20032;-84
2022/09/17 03:32:45;;;;;;;8.48;3.22;;;10.70;99.90;;;;;;5054298;28;20525;-84
2022/09/17 03:35:11;;;;;;;9.25;3.10;;;10.70;99.90;;;;;;5057027;28;20021;-85
2022/09/17 03:37:36;;;;;;;8.93;3.10;;;10.60;99.90;;;;;;5077631;28;20043;-83
2022/09/17 03:40:03;;;;;;;4.45;2.65;;;10.60;99.90;;;;;;5053446;28;20074;-84
2022/09/17 03:42:29;;;;;;;8.88;2.90;;;10.60;99.90;;;;;;5052017;28;20389;-83
2022/09/17 03:44:55;;;;;;;6.60;3.13;;;11.80;99.90;;;;;;5052044;28;20020;-84
2022/09/17 03:47:21;;;;;;;7.22;2.70;;;10.80;99.90;;;;;;5053806;28;20032;-84
2022/09/17 03:49:47;;;;;;;11.68;3.25;;;11.30;99.90;;;;;;5050950;28;20033;-85
2022/09/17 03:52:12;;;;;;;5.78;2.03;;;12.30;99.90;;;;;;5074988;28;20032;-83
2022/09/17 03:54:38;;;;;;;9.75;3.78;;;10.70;99.90;;;;;;5075662;28;20033;-84
2022/09/17 03:57:04;;;;;;;5.90;2.30;;;13.50;99.90;;;;;;5074934;28;20024;-83
2022/09/17 03:59:30;;;;;;;3.60;1.83;;;10.80;99.90;;;;;;5076785;28;20024;-83
2022/09/17 04:01:56;;;;;;;4.40;1.80;;;11.30;99.90;;;;;;5060976;28;20021;-85
2022/09/17 04:04:22;;;;;;;5.22;1.88;;;10.90;99.90;;;;;;5073138;28;20029;-84
2022/09/17 04:06:48;;;;;;;6.00;2.13;;;10.80;99.90;;;;;;5066347;28;20127;-80
2022/09/17 04:09:13;;;;;;;5.10;1.98;;;12.20;99.90;;;;;;5053527;28;20074;-85
2022/09/17 04:11:39;;;;;;;9.35;2.15;;;10.70;99.90;;;;;;5080105;28;20035;-84
2022/09/17 04:14:05;;;;;;;5.25;2.25;;;11.80;99.90;;;;;;5053205;28;20025;-83
2022/09/17 04:16:30;;;;;;;9.82;2.33;;;11.40;99.90;;;;;;5079745;28;20017;-83
2022/09/17 04:18:56;;;;;;;5.95;2.22;;;10.60;99.90;;;;;;5074047;28;20027;-84
2022/09/17 04:21:21;;;;;;;7.30;1.98;;;11.20;99.90;;;;;;5056230;28;20027;-83
2022/09/17 04:23:47;;;;;;;6.13;2.17;;;10.50;99.90;;;;;;5061870;28;20024;-81
2022/09/17 04:26:13;;;;;;;5.85;2.10;;;11.60;99.90;;;;;;5058076;28;20029;-84
2022/09/17 04:28:39;;;;;;;6.93;2.00;;;10.40;99.90;;;;;;5056254;28;20116;-83
2022/09/17 04:31:04;;;;;;;7.35;1.90;;;11.40;99.90;;;;;;5063716;28;20052;-82
2022/09/17 04:33:30;;;;;;;7.85;2.08;;;10.40;99.90;;;;;;5070075;28;20039;-84
2022/09/17 04:35:55;;;;;;;5.30;1.92;;;10.40;99.90;;;;;;5063556;28;20021;-81
2022/09/17 04:38:21;;;;;;;5.22;1.60;;;10.40;99.90;;;;;;5061906;28;20363;-82
2022/09/17 04:40:47;;;;;;;7.28;1.98;;;10.50;99.90;;;;;;5068059;28;20052;-81
2022/09/17 04:43:16;;;;;;;7.53;1.90;;;10.40;99.90;;;;;;5058255;28;20122;-85
2022/09/17 04:45:45;;;;;;;5.00;1.60;;;10.50;99.90;;;;;;5072095;28;20016;-84
2022/09/17 04:48:11;;;;;;;5.53;1.88;;;12.90;99.90;;;;;;5074763;28;20033;-85
2022/09/17 04:50:37;;;;;;;4.97;2.05;;;;;;;;;;5075954;28;20029;-81
2022/09/17 04:53:03;;;;;;;7.22;2.00;;;10.60;99.90;;;;;;5082270;28;20033;-80
2022/09/17 04:55:30;;;;;;;4.95;1.70;;;10.50;99.90;;;;;;5077168;28;20055;-81
2022/09/17 04:57:56;;;;;;;7.10;1.90;;;10.50;99.90;;;;;;5080525;28;20017;-82
2022/09/17 05:00:23;;;;;;;3.88;1.80;;;10.40;99.90;;;;;;5076512;28;20029;-83
2022/09/17 05:02:52;;;;;;;7.05;1.98;;;13.50;99.90;;;;;;5074768;28;20032;-79
2022/09/17 05:05:18;;;;;;;5.95;2.20;;;10.40;99.90;;;;;;5059633;28;20510;-83
2022/09/17 05:07:44;;;;;;;4.70;1.88;;;10.40;99.90;;;;;;5058521;28;20643;-78
2022/09/17 05:10:12;;;;;;;5.28;1.73;;;10.30;99.90;;;;;;5058666;28;20033;-87
2022/09/17 05:12:37;;;;;;;7.18;2.15;;;10.30;99.90;;;;;;5062086;28;20504;-81
2022/09/17 05:15:04;;;;;;;6.55;2.25;;;12.90;99.90;;;;;;5077677;28;20597;-82
2022/09/17 05:17:29;;;;;;;6.15;1.95;;;10.30;99.90;;;;;;5057827;28;20017;-84
2022/09/17 05:19:55;;;;;;;4.85;1.90;;;10.40;99.90;;;;;;5056723;28;20046;-83
2022/09/17 05:22:21;;;;;;;4.97;1.98;;;11.70;99.90;;;;;;5070495;28;20048;-82
2022/09/17 05:24:46;;;;;;;3.65;1.80;;;11.30;99.90;;;;;;5055509;28;20514;-82
2022/09/17 05:27:12;;;;;;;6.72;2.35;;;11.00;99.90;;;;;;5040629;28;20123;-83
2022/09/17 05:29:38;;;;;;;9.48;2.10;;;10.40;99.90;;;;;;5059111;28;20028;-83
2022/09/17 05:32:05;;;;;;;5.07;1.80;;;10.40;99.90;;;;;;5075127;28;20108;-83
2022/09/17 05:34:30;;;;;;;7.60;2.40;;;12.20;99.90;;;;;;5070411;28;20029;-84
2022/09/17 05:36:56;;;;;;;8.63;2.28;;;10.20;99.90;;;;;;5059432;28;20585;-82
2022/09/17 05:39:24;;;;;;;4.28;1.98;;;10.50;99.90;;;;;;5058675;28;20029;-83
2022/09/17 05:41:51;;;;;;;5.65;1.80;;;10.50;99.90;;;;;;5058411;28;20021;-86
2022/09/17 05:44:17;;;;;;;3.65;1.80;;;11.90;99.90;;;;;;5055869;28;20539;-84
2022/09/17 05:46:43;;;;;;;6.63;2.10;;;12.60;99.90;;;;;;5051310;28;20044;-85
2022/09/17 05:49:08;;;;;;;5.18;2.05;;;10.50;99.90;;;;;;5059155;28;20078;-85
2022/09/17 05:51:34;;;;;;;5.15;1.73;;;10.40;99.90;;;;;;5057964;28;20025;-84
2022/09/17 05:54:00;;;;;;;4.53;1.90;;;11.00;99.90;;;;;;5069092;28;20441;-82
2022/09/17 05:56:25;;;;;;;9.98;2.05;;;10.40;99.90;;;;;;5055967;28;20036;-83
2022/09/17 05:58:55;;;;;;;7.47;2.05;;;10.60;99.90;;;;;;5058624;28;20040;-86
2022/09/17 06:01:21;;;;;;;6.23;2.10;;;12.00;99.90;;;;;;5059217;28;20043;-81
2022/09/17 06:03:46;;;;;;;4.70;2.03;;;10.60;99.90;;;;;;5057270;28;20286;-84
2022/09/17 06:06:12;;;;;;;4.75;1.70;;;10.50;99.90;;;;;;5055629;28;20028;-84
2022/09/17 06:08:38;;;;;;;7.18;2.72;;;10.50;99.90;;;;;;5049715;28;20100;-85
2022/09/17 06:11:05;;;;;;;4.55;1.70;;;10.50;99.90;;;;;;5056241;28;20024;-79
2022/09/17 06:13:31;;;;;;;6.80;2.25;;;10.50;99.90;;;;;;5069915;28;20040;-81
2022/09/17 06:15:57;;;;;;;8.60;1.90;;;12.60;99.90;;;;;;5076486;28;20037;-81
2022/09/17 06:18:22;;;;;;;6.55;2.03;;;10.50;99.90;;;;;;5058959;28;20067;-85
2022/09/17 06:20:53;;;;;;;6.25;2.20;;;12.40;99.90;;;;;;5072083;28;20478;-82
2022/09/17 06:23:19;;;;;;;4.25;2.00;;;10.60;99.90;;;;;;5060264;28;20019;-80
2022/09/17 06:25:58;;;;;;;4.40;2.15;;;10.60;99.90;;;;;;5074686;28;20017;-84
2022/09/17 06:28:27;;;;;;;5.95;2.13;;;10.60;99.90;;;;;;5070938;28;20020;-82
2022/09/17 06:30:54;;;;;;;5.40;2.33;;;11.30;99.90;;;;;;5076649;28;20070;-81
2022/09/17 06:33:21;;;;;;;7.20;2.30;;;12.00;99.90;;;;;;5064523;28;20024;-84
2022/09/17 06:35:47;;;;;;;6.65;2.60;;;10.80;99.90;;;;;;5082682;28;20545;-82
2022/09/17 06:38:12;;;;;;;10.38;2.78;;;10.90;99.90;;;;;;5061604;28;20063;-82
2022/09/17 06:40:38;;;;;;;6.50;2.40;;;11.00;99.90;;;;;;5073055;28;20485;-85
2022/09/17 06:43:04;;;;;;;8.57;2.58;;;11.00;99.90;;;;;;5072023;28;20033;-82
2022/09/17 06:45:29;;;;;;;7.15;2.63;;;11.10;99.90;;;;;;5069097;28;20036;-83
2022/09/17 06:47:55;;;;;;;6.35;2.70;;;11.20;99.90;;;;;;5075480;28;20025;-81
2022/09/17 06:50:21;;;;;;;11.65;2.58;;;12.00;99.90;;;;;;5052529;28;20041;-82
2022/09/17 06:52:48;;;;;;;6.95;2.53;;;13.90;99.90;;;;;;5049125;28;20021;-81
2022/09/17 06:55:14;;;;;;;5.30;2.22;;;11.40;99.90;;;;;;5071352;28;20106;-83
2022/09/17 06:57:40;;;;;;;8.80;2.30;;;11.50;99.90;;;;;;5074734;28;20036;-81
2022/09/17 07:00:07;;;;;;;4.22;2.50;;;14.20;99.90;;;;;;5073893;28;20024;-80
2022/09/17 07:02:33;;;;;;;8.50;2.85;;;11.70;99.90;;;;;;5064862;28;20514;-84
2022/09/17 07:04:59;;;;;;;8.77;2.92;;;11.80;99.90;;;;;;5056999;28;20047;-84
2022/09/17 07:07:25;;;;;;;12.60;2.70;;;11.80;99.90;;;;;;5077515;28;20509;-85
2022/09/17 07:09:52;;;;;;;7.78;2.80;;;12.00;99.90;;;;;;5059940;28;20485;-84
2022/09/17 07:12:18;;;;;;;5.68;2.63;;;12.50;99.90;;;;;;5059327;28;20048;-85
2022/09/17 07:14:44;;;;;;;6.55;2.35;;;12.10;99.90;;;;;;5051210;28;20024;-83
2022/09/17 07:17:09;;;;;;;10.23;3.13;;;12.30;99.90;;;;;;5057282;28;20039;-81
2022/09/17 07:19:35;;;;;;;7.45;2.35;;;13.30;99.90;;;;;;5047896;28;20029;-82
2022/09/17 07:22:01;;;;;;;11.25;3.25;;;12.50;99.90;;;;;;5059410;28;20038;-83
2022/09/17 07:24:26;;;;;;;8.25;2.38;;;12.50;99.90;;;;;;5075735;28;20050;-80
2022/09/17 07:26:52;;;;;;;7.85;2.20;;;12.50;99.90;;;;;;5075129;28;20032;-83
2022/09/17 07:29:17;;;;;;;5.93;2.00;;;12.50;99.90;;;;;;5075359;28;20355;-83
2022/09/17 07:31:43;;;;;;;6.90;2.65;;;12.50;99.90;;;;;;5039960;28;20085;-82
2022/09/17 07:34:09;;;;;;;5.32;2.00;;;12.50;99.90;;;;;;5058002;28;20025;-81
2022/09/17 07:36:35;;;;;;;6.80;2.55;;;12.60;99.90;;;;;;5062721;28;20028;-82
2022/09/17 07:39:01;;;;;;;6.30;1.65;;;12.90;99.90;;;;;;5058402;28;20027;-86
2022/09/17 07:41:26;;;;;;;5.78;1.55;;;13.10;99.90;;;;;;5064539;28;20032;-84
2022/09/17 07:43:53;;;;;;;4.15;1.80;;;15.10;99.90;;;;;;5064315;28;20025;-80
2022/09/17 07:46:20;;;;;;;4.10;1.60;;;15.10;99.90;;;;;;5061108;28;20044;-82
2022/09/17 07:48:47;;;;;;;6.30;1.67;;;13.40;99.90;;;;;;5064075;28;20541;-85
2022/09/17 07:51:17;;;;;;;6.38;1.77;;;13.40;99.90;;;;;;5065174;28;20033;-80
2022/09/17 07:53:43;;;;;;;;;;;13.40;99.90;;;;;;5054666;28;20033;-83
2022/09/17 07:56:09;;;;;;;6.65;2.00;;;13.40;99.90;;;;;;5078008;28;20030;-80
2022/09/17 07:58:35;;;;;;;4.40;1.80;;;;;;;;;;5078101;28;20146;-81
2022/09/17 08:01:19;;;;;;;6.75;2.00;;;13.20;99.90;;;;;;5051556;28;20020;-83
2022/09/17 08:03:53;;;;;;;9.48;1.95;;;13.10;99.90;;;;;;5071808;28;20028;-81
2022/09/17 08:06:27;;;;;;;6.57;1.90;;;16.20;99.90;;;;;;5074344;28;20398;-82
2022/09/17 08:08:57;;;;;;;7.88;2.50;;;13.10;99.90;;;;;;5072250;28;20107;-79
2022/09/17 08:11:25;;;;;;;3.80;1.50;;;13.30;99.90;;;;;;5074992;28;20021;-81
2022/09/17 08:13:53;;;;;;;7.68;2.20;;;13.30;99.90;;;;;;5057964;28;20033;-80
2022/09/17 08:16:19;;;;;;;5.15;1.63;;;;;;;;;;5075034;28;20027;-85
2022/09/17 08:18:46;;;;;;;4.38;1.88;;;;;;;;;;5058322;28;20030;-81
2022/09/17 08:21:14;;;;;;;5.10;1.67;;;13.50;99.90;;;;;;5055559;28;20017;-82
2022/09/17 08:23:41;;;;;;;6.78;1.50;;;13.60;99.90;;;;;;5070832;28;20025;-83
2022/09/17 08:26:14;;;;;;;4.80;1.65;;;13.60;99.90;;;;;;5065888;28;20036;-83
2022/09/17 08:28:53;;;;;;;6.63;2.30;;;13.60;99.90;;;;;;5047722;28;20040;-84
2022/09/17 08:31:19;;;;;;;8.43;2.15;;;;;;;;;;5037769;28;20032;-82
2022/09/17 08:33:45;;;;;;;4.93;2.20;;;;;;;;;;5053034;28;20064;-85
2022/09/17 08:36:14;;;;;;;8.20;2.85;;;13.70;99.90;;;;;;5053363;28;20383;-83
2022/09/17 08:38:40;;;;;;;5.30;2.20;;;15.10;99.90;;;;;;5075829;28;20020;-80
2022/09/17 08:41:27;;;;;;;7.95;3.03;;;14.10;99.90;;;;;;5058110;28;20020;-79
2022/09/17 08:44:29;;;;;;;8.32;2.72;;;14.40;99.90;;;;;;5074549;28;20067;-83
2022/09/17 08:47:05;;;;;;;5.80;1.98;;;15.90;99.90;;;;;;5020431;28;20410;-82
2022/09/17 08:49:40;;;;;;;7.40;2.35;;;15.00;99.90;;;;;;5067187;28;20036;-82
2022/09/17 08:52:33;;;;;;;5.47;1.70;;;14.50;99.90;;;;;;5075060;28;20027;-83
2022/09/17 08:55:30;;;;;;;11.63;2.80;;;14.50;99.90;;;;;;5076273;28;20024;-84
2022/09/17 08:58:19;;;;;;;7.55;2.70;;;14.40;99.90;;;;;;5081232;28;20025;-83
2022/09/17 09:01:04;;;;;;;4.05;1.83;;;14.50;99.90;;;;;;5038453;28;20062;-82
2022/09/17 09:03:51;;;;;;;8.32;1.90;;;14.50;99.90;;;;;;5092540;22;20046;-78
2022/09/17 09:06:52;;;;;;;6.07;1.65;;;14.50;99.90;;;;;;5046612;28;20029;-78
2022/09/17 09:12:35;;;;;;;8.52;2.03;;;14.40;99.90;;;;;;5050305;28;20101;-78
2022/09/17 09:19:20;;;;;;;3.35;1.30;;;14.40;99.90;;;;;;4985336;28;20049;-76
2022/09/17 09:22:41;;;;;;;5.90;1.60;;;14.50;99.90;;;;;;4968141;28;20043;-78
2022/09/17 09:25:41;;;;;;;6.43;1.70;;;14.70;99.90;;;;;;4991212;28;20105;-77
2022/09/17 09:35:00;;;;;;;7.10;1.60;;;15.50;99.90;;;;;;4995783;28;20037;-79
2022/09/17 09:37:33;;;;;;;5.88;1.95;;;15.60;99.90;;;;;;5005160;28;20036;-84
2022/09/17 09:40:24;;;;;;;6.45;1.60;;;15.60;99.90;;;;;;5017210;28;20054;-82
2022/09/17 09:42:54;;;;;;;3.85;1.20;;;15.90;99.90;;;;;;5032115;28;20021;-81
2022/09/17 09:45:53;;;;;;;5.40;1.40;;;15.80;99.90;;;;;;5039486;28;20028;-79
2022/09/17 10:04:33;;;;;;;8.20;2.17;;;;;;;;;;5049824;28;20028;-86
2022/09/17 10:07:33;;;;;;;7.07;2.10;;;;;;;;;;5034085;28;20041;-87
2022/09/17 10:10:09;;;;;;;9.82;1.95;;;14.70;99.90;;;;;;5060064;28;20021;-84
2022/09/17 10:12:35;;;;;;;7.63;2.30;;;;;;;;;;5070325;28;20044;-87
2022/09/17 10:18:24;;;;;;;5.70;1.77;;;14.70;99.90;;;;;;5079731;23;20051;-76
2022/09/17 10:20:54;;;;;;;5.10;1.98;;;14.60;99.90;;;;;;5049473;28;20025;-77
2022/09/17 10:23:21;;;;;;;6.65;1.90;;;14.40;99.90;;;;;;5039771;28;20996;-76
2022/09/17 10:25:48;;;;;;;5.57;1.60;;;14.40;99.90;;;;;;5037992;28;20025;-75
2022/09/17 10:28:41;;;;;;;10.02;2.85;;;14.30;99.90;;;;;;5050300;28;20044;-75
2022/09/17 10:31:09;;;;;;;7.70;2.45;;;14.30;99.90;;;;;;5060922;28;20021;-76
2022/09/17 10:33:39;;;;;;;4.65;1.70;;;14.30;99.90;;;;;;5055344;28;20047;-77
2022/09/17 10:36:07;;;;;;;5.37;1.50;;;14.30;99.90;;;;;;5059388;28;20028;-77
2022/09/17 10:38:45;;;;;;;4.53;1.83;;;14.30;99.90;;;;;;5033250;28;20060;-77
2022/09/17 10:41:24;;;;;;;10.40;2.38;;;14.50;99.90;;;;;;5047549;28;20140;-76
2022/09/17 10:43:50;;;;;;;9.35;1.95;;;14.60;99.90;;;;;;5026278;28;20033;-76
2022/09/17 10:46:27;;;;;;;3.78;1.80;;;14.70;99.90;;;;;;5041529;28;20043;-76
2022/09/17 10:49:21;;;;;;;6.25;1.88;;;14.70;99.90;;;;;;5032631;28;20029;-76
2022/09/17 10:51:47;;;;;;;7.38;1.95;;;14.70;99.90;;;;;;5036021;28;20380;-76
2022/09/17 10:55:01;;;;;;;7.75;1.65;;;14.80;99.90;;;;;;5030194;28;20053;-76
2022/09/17 10:57:48;;;;;;;8.50;1.58;;;15.00;99.90;;;;;;5034158;28;20148;-76
2022/09/17 11:00:19;;;;;;;7.80;1.77;;;15.30;99.90;;;;;;5042159;28;20362;-76
2022/09/17 11:03:11;;;;;;;7.10;1.92;;;15.60;99.90;;;;;;5038055;28;20028;-77
2022/09/17 11:05:55;;;;;;;8.93;1.83;;;16.20;99.90;;;;;;5042952;28;20084;-76
2022/09/17 11:08:27;;;;;;;9.40;1.85;;;16.20;99.90;;;;;;5056753;28;20036;-74
2022/09/17 11:11:26;;;;;;;7.22;1.65;;;16.30;99.90;;;;;;5067816;28;20047;-75
2022/09/17 11:14:17;;;;;;;7.22;1.50;;;16.30;99.90;;;;;;5037666;28;20047;-75
2022/09/17 11:16:58;;;;;;;4.80;1.50;;;16.20;99.90;;;;;;5059021;28;20056;-76
2022/09/17 11:19:56;;;;;;;6.15;1.60;;;16.00;99.90;;;;;;5051351;28;20032;-75
2022/09/17 11:22:27;;;;;;;9.68;1.85;;;15.80;99.90;;;;;;5065042;28;20037;-74
2022/09/17 11:25:06;;;;;;;4.65;1.67;;;15.50;99.90;;;;;;5040411;28;20024;-74
2022/09/17 11:28:00;;;;;;;5.63;1.70;;;15.40;99.90;;;;;;5041712;28;20037;-77
2022/09/17 11:30:32;;;;;;;6.57;1.50;;;15.60;99.90;;;;;;5066092;28;20048;-76
2022/09/17 11:33:07;;;;;;;6.72;1.92;;;15.70;99.90;;;;;;5062446;28;20036;-76
2022/09/17 11:35:37;;;;;;;6.93;1.90;;;15.80;99.90;;;;;;5058145;28;20033;-76
2022/09/17 11:38:21;;;;;;;14.38;2.38;;;15.80;99.90;;;;;;5056561;28;20030;-75
2022/09/17 11:40:58;;;;;;;8.68;1.98;;;15.70;99.90;;;;;;5059408;28;20028;-74
2022/09/17 11:43:30;;;;;;;8.95;1.90;;;15.70;99.90;;;;;;5058907;28;20055;-75
2022/09/17 11:46:06;;;;;;;9.07;2.00;;;16.00;99.90;;;;;;5044755;28;20689;-75
2022/09/17 11:48:40;;;;;;;11.60;2.05;;;16.10;99.90;;;;;;5052722;28;20021;-78
2022/09/17 11:51:15;;;;;;;4.97;1.65;;;16.30;99.90;;;;;;5051143;28;20045;-76
2022/09/17 11:53:50;;;;;;;11.35;2.22;;;16.50;99.90;;;;;;5049803;28;20029;-76
2022/09/17 11:56:29;;;;;;;4.07;1.63;;;16.50;99.90;;;;;;5030161;28;20036;-76
2022/09/17 11:59:29;;;;;;;10.07;1.95;;;16.50;99.90;;;;;;5048349;28;20024;-76
2022/09/17 12:02:01;;;;;;;5.45;1.80;;;16.40;99.90;;;;;;5051056;28;20508;-75
2022/09/17 12:04:45;;;;;;;7.68;2.00;;;16.30;99.90;;;;;;5037016;28;20033;-75
2022/09/17 12:07:54;;;;;;;5.97;1.58;;;16.00;99.90;;;;;;5045973;28;20086;-77
2022/09/17 12:10:22;;;;;;;7.28;1.73;;;15.70;99.90;;;;;;5033697;28;20026;-76
2022/09/17 12:13:02;;;;;;;7.75;2.17;;;15.70;99.90;;;;;;5042672;28;20032;-76
2022/09/17 12:15:31;;;;;;;7.35;2.17;;;16.00;99.90;;;;;;5046799;28;20036;-75
2022/09/17 12:18:25;;;;;;;6.78;2.33;;;16.00;99.90;;;;;;5046411;28;20045;-77
2022/09/17 12:20:54;;;;;;;7.85;2.30;;;16.10;99.90;;;;;;5063755;28;20051;-76
2022/09/17 12:23:37;;;;;;;5.53;1.45;;;16.30;99.90;;;;;;5057159;28;20048;-76
2022/09/17 12:26:28;;;;;;;10.48;1.80;;;16.20;99.90;;;;;;5063573;28;20524;-76
2022/09/17 12:29:19;;;;;;;7.90;1.58;;;16.10;99.90;;;;;;5057881;28;20036;-75
2022/09/17 12:32:07;;;;;;;8.98;1.60;;;16.10;99.90;;;;;;5050486;28;20033;-76
2022/09/17 12:34:32;;;;;;;6.90;1.40;;;16.10;99.90;;;;;;5057711;28;20032;-76
2022/09/17 12:37:07;;;;;;;12.07;4.78;;;15.90;99.90;;;;;;5042380;28;20024;-76
2022/09/17 12:40:11;;;;;;;5.53;1.67;;;15.90;99.90;;;;;;5031400;28;20029;-75
2022/09/17 12:42:40;;;;;;;4.00;1.65;;;16.00;99.90;;;;;;4993070;28;20040;-77
2022/09/17 12:45:31;;;;;;;9.40;2.85;;;16.20;99.90;;;;;;5056366;28;20088;-77
2022/09/17 12:48:26;;;;;;;5.90;2.40;;;16.40;99.90;;;;;;5036349;28;20026;-75
2022/09/17 12:51:06;;;;;;;5.72;1.50;;;16.40;99.90;;;;;;5008712;28;20080;-75
2022/09/17 12:53:46;;;;;;;5.13;1.55;;;16.40;99.90;;;;;;5050560;28;20496;-76
2022/09/17 12:56:23;;;;;;;6.00;1.85;;;16.50;99.90;;;;;;5047315;28;20071;-77
2022/09/17 12:59:14;;;;;;;5.60;2.05;;;16.50;99.90;;;;;;5021402;28;20028;-77
2022/09/17 13:01:55;;;;;;;6.43;1.80;;;16.60;99.60;;;;;;5024283;28;20059;-77
2022/09/17 13:04:33;;;;;;;5.35;1.10;;;16.70;99.70;;;;;;5042521;28;20501;-77
2022/09/17 13:07:26;;;;;;;3.75;1.77;;;16.80;98.10;;;;;;5037886;28;20035;-77
2022/09/17 13:10:21;;;;;;;5.22;1.60;;;16.80;98.90;;;;;;5052870;28;20204;-76
2022/09/17 13:12:55;;;;;;;4.85;1.20;;;16.80;99.10;;;;;;5040711;28;20441;-76
2022/09/17 13:15:45;;;;;;;4.25;1.55;;;16.70;98.30;;;;;;5038754;28;20294;-76
2022/09/17 13:18:37;;;;;;;2.55;0.98;;;16.70;98.90;;;;;;5049813;28;20021;-76
2022/09/17 13:21:13;;;;;;;4.25;0.95;;;16.70;97.90;;;;;;5039639;28;20116;-75
2022/09/17 13:23:43;;;;;;;6.00;1.27;;;16.70;97.70;;;;;;5036388;28;20017;-77
2022/09/17 13:26:10;;;;;;;;;;;17.00;97.60;;;;;;5056205;28;20029;-76
2022/09/17 13:28:45;;;;;;;3.53;0.77;;;17.10;96.90;;;;;;5057502;28;20406;-76
2022/09/17 13:31:13;;;;;;;2.00;0.90;;;17.20;97.00;;;;;;5035106;28;20033;-77
2022/09/17 13:33:52;;;;;;;3.03;1.20;;;17.20;95.90;;;;;;5047166;28;20727;-75
2022/09/17 13:36:37;;;;;;;4.40;1.67;;;17.10;95.80;;;;;;5048458;28;20035;-76
2022/09/17 13:39:04;;;;;;;8.30;2.95;;;17.10;96.10;;;;;;5024025;28;20026;-75
2022/09/17 13:41:35;;;;;;;3.15;1.42;;;17.00;96.20;;;;;;5040281;28;20935;-74
2022/09/17 13:44:05;;;;;;;6.47;1.45;;;17.20;96.20;;;;;;5025044;28;20055;-76
2022/09/17 13:46:36;;;;;;;6.25;3.30;;;17.60;96.30;;;;;;5015667;28;20478;-76
2022/09/17 13:49:12;;;;;;;2.13;0.90;;;17.90;95.60;;;;;;5021729;28;20048;-76
2022/09/17 13:51:37;;;;;;;5.20;1.23;;;18.20;94.50;;;;;;5032375;28;20507;-76
2022/09/17 13:54:06;;;;;;;3.78;0.88;;;18.40;94.50;;;;;;5052802;28;20083;-77